Time;durP1;ratioP1;P1;durP2;ratioP2;P2;SDS_P1;SDS_P2;PMS_P1;PMS_P2;Temp;Humidity;BMP_temperature;BMP_pressure;BME280_temperature;BME280_humidity;BME280_pressure;Samples;Min_cycle;Max_cycle;Signal;HPM_P1;HPM_P2
2021/12/31 00:01:59;;;;;;;13.13;3.13;;;;;;;12.67;100.00;98919.03;5054436;28;20036;-66
2021/12/31 00:04:25;;;;;;;7.70;2.70;;;;;;;12.67;100.00;99255.59;5050899;28;20072;-66
2021/12/31 00:06:50;;;;;;;6.63;2.50;;;;;;;12.72;100.00;98591.91;5059445;28;20063;-66
2021/12/31 00:09:16;;;;;;;5.43;2.07;;;;;;;12.66;100.00;99588.72;5063802;28;20033;-66
2021/12/31 00:11:41;;;;;;;6.67;3.30;;;;;;;12.57;100.00;100582.13;5061976;28;20085;-67
2021/12/31 00:14:07;;;;;;;7.10;2.93;;;;;;;12.52;100.00;105612.53;5065978;28;20218;-66
2021/12/31 00:16:33;;;;;;;8.40;2.67;;;;;;;12.70;100.00;102283.56;5058273;28;20485;-66
2021/12/31 00:18:59;;;;;;;10.27;3.33;;;;;;;12.64;100.00;97236.88;5061594;28;20024;-66
2021/12/31 00:21:24;;;;;;;8.27;2.73;;;;;;;12.70;100.00;97582.50;5057434;28;20488;-66
2021/12/31 00:23:50;;;;;;;7.00;3.00;;;;;;;12.69;100.00;88531.78;5063512;28;20074;-66
2021/12/31 00:26:15;;;;;;;5.90;2.43;;;;;;;12.64;100.00;87186.50;5058078;28;20155;-66
2021/12/31 00:28:41;;;;;;;7.67;2.37;;;;;;;12.75;100.00;79850.06;5056127;28;20040;-66
2021/12/31 00:31:06;;;;;;;6.47;2.00;;;;;;;12.84;100.00;61213.06;5058128;28;20059;-66
2021/12/31 00:33:31;;;;;;;5.87;2.23;;;;;;;12.82;100.00;53249.94;5058502;28;20438;-66
2021/12/31 00:35:57;;;;;;;5.87;2.63;;;;;;;12.68;100.00;55887.72;5057047;28;20559;-66
2021/12/31 00:38:22;;;;;;;4.93;2.00;;;;;;;12.76;100.00;57885.47;5061954;28;20284;-66
2021/12/31 00:40:48;;;;;;;5.47;2.20;;;;;;;12.80;100.00;48943.81;5067583;28;20040;-66
2021/12/31 00:43:13;;;;;;;5.43;2.47;;;;;;;12.82;100.00;38703.38;5061148;28;20055;-66
2021/12/31 00:45:40;;;;;;;6.90;2.50;;;;;;;12.80;100.00;40352.16;5059580;28;20060;-66
2021/12/31 00:48:09;;;;;;;6.87;2.73;;;;;;;12.89;100.00;35081.03;5058481;28;20101;-66
2021/12/31 00:50:36;;;;;;;5.77;2.10;;;;;;;12.84;100.00;31125.63;5057683;28;20132;-66
2021/12/31 00:53:01;;;;;;;6.17;2.20;;;;;;;12.90;100.00;21596.44;5058239;28;20024;-66
2021/12/31 00:55:26;;;;;;;7.47;2.97;;;;;;;12.75;100.00;28160.09;5060205;28;20020;-66
2021/12/31 00:57:52;;;;;;;6.60;2.50;;;;;;;12.87;100.00;30140.25;5058689;28;20199;-66
2021/12/31 01:00:18;;;;;;;4.43;2.43;;;;;;;12.82;100.00;22577.88;5062459;28;20036;-66
2021/12/31 01:02:46;;;;;;;4.10;2.00;;;;;;;12.94;100.00;23896.34;5056840;28;20290;-66
2021/12/31 01:05:12;;;;;;;7.13;2.70;;;;;;;12.82;100.00;17984.78;5064519;28;20037;-66
2021/12/31 01:07:38;;;;;;;7.67;2.13;;;;;;;12.81;100.00;24547.59;5063997;28;20102;-66
2021/12/31 01:10:05;;;;;;;4.43;1.80;;;;;;;12.85;100.00;32443.09;5061231;28;20468;-66
2021/12/31 01:12:30;;;;;;;5.07;2.50;;;;;;;12.75;100.00;36061.03;5056200;28;20509;-66
2021/12/31 01:15:06;;;;;;;6.63;2.30;;;;;;;12.76;100.00;37050.63;5061610;28;20036;-66
2021/12/31 01:20:06;;;;;;;5.43;2.60;;;;;;;12.78;100.00;42661.34;5058506;28;20055;-66
2021/12/31 01:22:33;;;;;;;8.87;2.73;;;;;;;12.74;100.00;41998.25;5057757;28;20139;-66
2021/12/31 01:24:59;;;;;;;6.90;2.30;;;;;;;12.90;100.00;36400.56;5058417;28;20041;-66
2021/12/31 01:27:25;;;;;;;7.40;2.50;;;;;;;12.83;100.00;26191.69;5051939;28;20389;-66
2021/12/31 01:29:50;;;;;;;9.57;2.23;;;;;;;12.85;100.00;24877.97;5064868;28;20043;-66
2021/12/31 01:32:16;;;;;;;5.53;2.23;;;;;;;12.86;100.00;23564.72;5057773;28;20055;-67
2021/12/31 01:34:41;;;;;;;5.17;1.90;;;;;;;12.82;100.00;22905.97;5060976;28;20028;-66
2021/12/31 01:37:07;;;;;;;6.23;2.33;;;;;;;12.82;100.00;21921.34;5055425;28;20028;-66
2021/12/31 01:39:34;;;;;;;6.33;2.30;;;;;;;12.81;100.00;20608.25;5060047;28;20078;-65
2021/12/31 01:42:00;;;;;;;4.13;2.50;;;;;;;12.84;100.00;22906.84;5065984;28;20028;-65
2021/12/31 01:44:34;;;;;;;4.17;2.30;;;;;;;12.91;100.00;8492.53;5055308;28;20357;-66
2021/12/31 01:47:04;;;;;;;6.80;1.97;;;;;;;12.87;100.00;-1627.72;5054499;28;20032;-66
2021/12/31 01:49:35;;;;;;;6.37;2.30;;;;;;;12.85;100.00;-8139.72;5054128;28;20124;-65
2021/12/31 01:52:01;;;;;;;5.83;2.43;;;;;;;12.89;100.00;-10741.34;5058198;28;20039;-65
2021/12/31 01:54:28;;;;;;;6.40;2.43;;;;;;;12.74;100.00;4895.59;5054739;28;20556;-65
2021/12/31 01:56:54;;;;;;;7.00;2.47;;;;;;;12.86;100.00;3917.63;5055154;28;20091;-65
2021/12/31 01:59:20;;;;;;;7.60;3.10;;;;;;;12.89;100.00;-7814.72;5062721;28;20036;-66
2021/12/31 02:01:46;;;;;;;6.50;2.37;;;;;;;12.86;100.00;-5536.53;5060212;28;20499;-65
2021/12/31 02:04:11;;;;;;;5.90;2.10;;;;;;;12.86;100.00;-5210.97;5057013;28;20139;-65
2021/12/31 02:06:37;;;;;;;4.43;2.10;;;;;;;12.85;100.00;-3582.72;5055541;28;20115;-65
2021/12/31 02:09:05;;;;;;;6.33;2.60;;;;;;;12.87;100.00;-4234.13;5060978;28;20043;-65
2021/12/31 02:11:31;;;;;;;5.43;2.53;;;;;;;12.79;100.00;2285.03;5058577;28;20488;-65
2021/12/31 02:13:58;;;;;;;7.37;2.60;;;;;;;12.95;100.00;-8140.41;5068399;28;20036;-65
2021/12/31 02:16:30;;;;;;;5.37;2.83;;;;;;;12.79;100.00;-1953.84;5062118;28;20147;-66
2021/12/31 02:18:55;;;;;;;6.50;2.40;;;;;;;12.86;100.00;1306.88;5047965;28;20398;-65
2021/12/31 02:21:21;;;;;;;4.80;2.80;;;;;;;12.85;100.00;654.47;5062123;28;20127;-65
2021/12/31 02:23:51;;;;;;;7.00;2.90;;;;;;;12.78;100.00;12742.13;5065495;28;20034;-65
2021/12/31 02:26:17;;;;;;;7.53;2.77;;;;;;;12.80;100.00;13724.91;5060730;28;20155;-65
2021/12/31 02:28:43;;;;;;;7.90;2.73;;;;;;;12.69;100.00;19619.47;5074372;28;20422;-65
2021/12/31 02:31:08;;;;;;;6.93;3.00;;;;;;;12.73;100.00;21261.25;5066578;28;20286;-65
2021/12/31 02:33:34;;;;;;;6.67;2.73;;;;;;;12.79;100.00;17983.72;5064677;28;20108;-66
2021/12/31 02:36:01;;;;;;;10.07;3.13;;;;;;;12.65;100.00;26182.84;5065509;28;20032;-65
2021/12/31 02:38:27;;;;;;;7.30;2.53;;;;;;;12.78;100.00;22247.88;5064608;28;20520;-65
2021/12/31 02:40:53;;;;;;;5.83;2.83;;;;;;;12.77;100.00;24874.47;5071279;28;20078;-65
2021/12/31 02:43:18;;;;;;;6.53;2.73;;;;;;;12.82;100.00;18968.50;5065513;28;20090;-65
2021/12/31 02:45:43;;;;;;;7.50;3.17;;;;;;;12.77;100.00;16016.66;5063586;28;20095;-66
2021/12/31 02:48:10;;;;;;;6.30;3.00;;;;;;;12.81;100.00;17001.06;5062522;28;20696;-65
2021/12/31 02:50:40;;;;;;;7.67;3.27;;;;;;;12.77;100.00;16344.16;5063383;28;20044;-65
2021/12/31 02:53:12;;;;;;;6.73;3.00;;;;;;;12.71;100.00;23558.00;5068099;28;20645;-65
2021/12/31 02:55:38;;;;;;;;;;;;;;;12.76;100.00;26188.25;5071151;28;20031;-65
2021/12/31 02:58:05;;;;;;;5.87;2.97;;;;;;;12.73;100.00;30790.25;5067293;28;19919;-65
2021/12/31 03:00:32;;;;;;;6.70;2.90;;;;;;;12.74;100.00;35071.75;5072444;28;20506;-65
2021/12/31 03:02:59;;;;;;;8.27;3.43;;;;;;;12.76;100.00;36061.69;5065208;28;20094;-65
2021/12/31 03:05:27;;;;;;;7.27;3.67;;;;;;;12.72;100.00;43317.66;5070543;28;20036;-65
2021/12/31 03:07:53;;;;;;;11.27;3.93;;;;;;;12.65;100.00;49592.44;5064931;28;20032;-66
2021/12/31 03:10:21;;;;;;;9.73;4.00;;;;;;;12.60;100.00;61187.78;5075834;28;20218;-66
2021/12/31 03:12:50;;;;;;;10.80;4.07;;;;;;;12.64;100.00;63184.66;5066197;28;20111;-65
2021/12/31 03:15:16;;;;;;;8.00;3.90;;;;;;;12.63;100.00;68502.69;5063790;28;20123;-65
2021/12/31 03:17:44;;;;;;;6.53;3.50;;;;;;;12.67;100.00;70171.53;5063571;28;20032;-66
2021/12/31 03:20:12;;;;;;;9.13;4.00;;;;;;;12.62;100.00;75828.72;5059726;28;20320;-65
2021/12/31 03:22:39;;;;;;;7.93;4.50;;;;;;;12.50;100.00;88169.59;5049436;28;20611;-65
2021/12/31 03:25:06;;;;;;;9.27;4.63;;;;;;;12.46;100.00;96535.81;5057068;28;20036;-65
2021/12/31 03:27:32;;;;;;;11.03;5.27;;;;;;;12.37;100.00;105921.34;5063448;28;20039;-65
2021/12/31 03:29:58;;;;;;;10.50;4.80;;;;;;;12.41;100.00;110639.69;5066935;28;20036;-65
2021/12/31 03:32:23;;;;;;;10.10;5.33;;;;;;;12.39;100.00;114677.06;5064481;28;20024;-65
2021/12/31 03:34:48;;;;;;;11.70;5.03;;;;;;;12.46;100.00;116377.72;5066163;28;20051;-65
2021/12/31 03:37:14;;;;;;;9.77;4.73;;;;;;;12.43;100.00;117719.84;5069448;28;20115;-65
2021/12/31 03:39:39;;;;;;;11.83;5.30;;;;;;;12.49;100.00;115709.31;5060797;28;20135;-65
2021/12/31 03:42:05;;;;;;;11.23;4.80;;;;;;;12.50;100.00;114698.84;5063923;28;20477;-65
2021/12/31 03:44:30;;;;;;;9.07;4.73;;;;;;;12.55;100.00;113361.44;5059670;28;20039;-65
2021/12/31 03:46:56;;;;;;;9.50;4.40;;;;;;;12.53;100.00;110999.38;5062001;28;20506;-65
2021/12/31 03:49:21;;;;;;;10.47;4.73;;;;;;;12.55;100.00;109993.03;5060575;28;20040;-69
2021/12/31 03:51:46;;;;;;;8.83;4.27;;;;;;;12.55;100.00;108645.63;5061141;28;20477;-67
2021/12/31 03:54:12;;;;;;;9.47;4.97;;;;;;;12.63;100.00;106641.66;5060727;28;20028;-67
2021/12/31 03:56:37;;;;;;;8.90;3.97;;;;;;;12.66;100.00;103956.91;5060092;28;20020;-67
2021/12/31 03:59:02;;;;;;;7.87;4.27;;;;;;;12.74;100.00;96581.81;5060355;28;20377;-67
2021/12/31 04:01:28;;;;;;;7.27;4.00;;;;;;;12.73;100.00;93897.34;5060879;28;20473;-67
2021/12/31 04:03:55;;;;;;;7.70;3.80;;;;;;;12.71;100.00;91883.38;5054656;28;20045;-67
2021/12/31 04:06:23;;;;;;;12.87;5.03;;;;;;;12.78;100.00;85535.06;5053529;28;20162;-67
2021/12/31 04:08:50;;;;;;;7.87;3.83;;;;;;;12.76;100.00;82189.41;5054444;28;20093;-67
2021/12/31 04:11:16;;;;;;;9.27;4.03;;;;;;;12.69;100.00;81177.34;5054974;28;20037;-67
2021/12/31 04:13:41;;;;;;;8.43;3.80;;;;;;;12.85;100.00;74525.22;5058738;28;20530;-67
2021/12/31 04:16:06;;;;;;;7.70;3.80;;;;;;;12.87;100.00;66867.06;5060158;28;20275;-66
2021/12/31 04:18:32;;;;;;;9.13;3.43;;;;;;;12.82;100.00;64201.63;5059739;28;20488;-67
2021/12/31 04:20:58;;;;;;;7.80;3.50;;;;;;;12.74;100.00;68848.06;5059829;28;20114;-67
2021/12/31 04:23:36;;;;;;;6.90;3.70;;;;;;;12.75;100.00;65855.34;5058737;28;20040;-67
2021/12/31 04:26:02;;;;;;;6.77;3.40;;;;;;;12.78;100.00;64861.38;5060346;28;20245;-67
2021/12/31 04:28:29;;;;;;;9.23;3.50;;;;;;;12.86;100.00;61215.75;5058152;28;20063;-67
2021/12/31 04:30:55;;;;;;;6.90;3.30;;;;;;;12.85;100.00;53916.00;5057577;28;20469;-67
2021/12/31 04:33:21;;;;;;;7.87;3.87;;;;;;;12.78;100.00;51921.72;5061124;28;20085;-67
2021/12/31 04:35:46;;;;;;;11.47;3.70;;;;;;;12.81;100.00;48283.41;5059547;28;20032;-67
2021/12/31 04:38:12;;;;;;;6.80;3.40;;;;;;;12.76;100.00;49602.16;5057571;28;20476;-68
2021/12/31 04:40:38;;;;;;;5.33;3.13;;;;;;;12.80;100.00;43654.22;5057686;28;20661;-68
2021/12/31 04:43:06;;;;;;;8.30;3.77;;;;;;;12.87;100.00;30798.47;5050611;28;20029;-68
2021/12/31 04:45:32;;;;;;;6.17;2.90;;;;;;;12.93;100.00;21269.00;5058765;28;20120;-68
2021/12/31 04:47:57;;;;;;;5.77;3.50;;;;;;;12.84;100.00;22907.09;5055278;28;20608;-68
2021/12/31 04:50:22;;;;;;;7.47;3.33;;;;;;;12.79;100.00;27504.56;5052638;28;20144;-68
2021/12/31 04:52:48;;;;;;;5.93;3.03;;;;;;;12.82;100.00;30137.47;5053971;28;20063;-68
2021/12/31 04:55:13;;;;;;;7.07;3.00;;;;;;;12.81;100.00;28491.81;5054270;28;20131;-68
2021/12/31 04:57:42;;;;;;;6.67;3.30;;;;;;;12.82;100.00;22905.97;5053755;28;20497;-68
2021/12/31 05:00:08;;;;;;;7.37;3.40;;;;;;;12.79;100.00;25860.84;5055893;28;20032;-68
2021/12/31 05:02:33;;;;;;;5.40;3.17;;;;;;;12.87;100.00;24550.63;5053811;28;20603;-68
2021/12/31 05:04:58;;;;;;;6.27;2.97;;;;;;;12.79;100.00;22576.59;5054627;28;20036;-68
2021/12/31 05:07:24;;;;;;;7.60;3.17;;;;;;;12.95;100.00;10455.56;5052930;28;20234;-68
2021/12/31 05:09:49;;;;;;;7.23;2.80;;;;;;;12.85;100.00;9472.28;5057156;28;20050;-65
2021/12/31 05:12:21;;;;;;;6.80;2.70;;;;;;;12.87;100.00;11108.28;5053631;28;20504;-66
2021/12/31 05:14:47;;;;;;;5.07;2.47;;;;;;;12.85;100.00;16019.25;5052206;28;20790;-66
2021/12/31 05:17:12;;;;;;;6.73;2.90;;;;;;;12.89;100.00;12090.53;5056392;28;20101;-66
2021/12/31 05:19:43;;;;;;;17.20;2.67;;;;;;;12.94;100.00;8166.00;5052533;28;20024;-66
2021/12/31 05:22:08;;;;;;;5.77;2.80;;;;;;;12.98;100.00;-1627.41;5052393;28;20527;-66
2021/12/31 05:24:34;;;;;;;7.60;3.17;;;;;;;12.88;100.00;-2605.38;5052504;28;20020;-67
2021/12/31 05:26:59;;;;;;;4.93;2.63;;;;;;;12.89;100.00;2938.72;5052717;28;20752;-67
2021/12/31 05:29:24;;;;;;;5.77;2.90;;;;;;;12.81;100.00;10452.56;5052512;28;20032;-67
2021/12/31 05:31:50;;;;;;;7.63;3.17;;;;;;;12.79;100.00;18967.19;5053681;28;20435;-67
2021/12/31 05:34:15;;;;;;;7.23;3.17;;;;;;;12.78;100.00;21919.66;5064708;28;20021;-67
2021/12/31 05:36:41;;;;;;;5.93;2.90;;;;;;;12.78;100.00;25532.00;5047956;28;20032;-67
2021/12/31 05:39:07;;;;;;;7.67;3.77;;;;;;;12.82;100.00;24219.56;5062058;28;20093;-67
2021/12/31 05:41:34;;;;;;;9.03;3.57;;;;;;;12.77;100.00;23888.88;5054159;28;20044;-67
2021/12/31 05:43:59;;;;;;;5.70;2.87;;;;;;;12.85;100.00;15036.38;5062348;28;20111;-67
2021/12/31 05:46:24;;;;;;;9.00;3.43;;;;;;;12.75;100.00;21590.00;5053751;28;20369;-67
2021/12/31 05:48:50;;;;;;;6.60;3.03;;;;;;;12.68;100.00;33421.03;5052166;28;20514;-67
2021/12/31 05:51:15;;;;;;;6.07;3.00;;;;;;;12.65;100.00;36713.63;5052023;28;20123;-67
2021/12/31 05:53:41;;;;;;;10.37;3.30;;;;;;;12.69;100.00;36057.09;5050168;28;20039;-67
2021/12/31 05:56:06;;;;;;;5.63;2.77;;;;;;;12.69;100.00;33750.97;5053201;28;20512;-67
2021/12/31 05:58:31;;;;;;;6.60;2.27;;;;;;;12.76;100.00;34743.53;5056445;28;20111;-67
2021/12/31 06:00:57;;;;;;;5.23;2.40;;;;;;;12.71;100.00;31118.16;5064211;28;20338;-67
2021/12/31 06:03:22;;;;;;;6.63;3.13;;;;;;;12.68;100.00;35726.59;5059010;28;20048;-67
2021/12/31 06:05:47;;;;;;;6.37;2.70;;;;;;;12.67;100.00;29142.34;5065707;28;20024;-67
2021/12/31 06:08:13;;;;;;;6.33;2.50;;;;;;;12.63;100.00;33088.72;5059817;28;20187;-67
2021/12/31 06:10:42;;;;;;;6.57;2.53;;;;;;;12.57;100.00;35390.63;5058001;28;20028;-66
2021/12/31 06:13:11;;;;;;;4.77;2.50;;;;;;;12.58;100.00;33744.16;5059088;28;20245;-67
2021/12/31 06:15:36;;;;;;;7.20;2.53;;;;;;;12.66;100.00;24212.25;5054480;28;20044;-67
2021/12/31 06:18:02;;;;;;;4.30;2.13;;;;;;;12.58;100.00;17976.28;5054939;28;20048;-67
2021/12/31 06:20:30;;;;;;;6.10;2.37;;;;;;;12.55;100.00;12736.09;5057101;28;20059;-67
2021/12/31 06:22:59;;;;;;;4.73;1.90;;;;;;;12.51;100.00;12735.16;5064885;28;20042;-67
2021/12/31 06:25:25;;;;;;;5.63;2.10;;;;;;;12.45;100.00;10771.31;5059864;28;20097;-67
2021/12/31 06:27:51;;;;;;;4.60;2.03;;;;;;;12.33;100.00;12730.47;5058392;28;20028;-67
2021/12/31 06:30:16;;;;;;;5.40;2.10;;;;;;;12.35;100.00;14039.44;5064803;28;20036;-67
2021/12/31 06:32:41;;;;;;;6.03;1.90;;;;;;;12.39;100.00;14040.47;5061723;28;20203;-67
2021/12/31 06:35:07;;;;;;;7.50;2.00;;;;;;;12.39;100.00;6849.34;5063802;28;20086;-67
2021/12/31 06:37:33;;;;;;;4.13;2.00;;;;;;;12.36;100.00;-4558.91;5058853;28;20070;-67
2021/12/31 06:40:03;;;;;;;3.77;1.60;;;;;;;12.29;100.00;-5859.88;5055083;28;20115;-67
2021/12/31 06:42:28;;;;;;;3.40;1.70;;;;;;;12.47;100.00;-19491.41;5057012;28;20037;-67
2021/12/31 06:44:54;;;;;;;4.93;1.70;;;;;;;12.43;100.00;-19490.34;5060545;28;20046;-67
2021/12/31 06:47:19;;;;;;;8.03;2.93;;;;;;;12.51;100.00;-19492.31;5055512;28;20090;-67
2021/12/31 06:49:44;;;;;;;6.07;1.53;;;;;;;12.60;100.00;-19494.81;5055934;28;20177;-67
2021/12/31 06:52:13;;;;;;;5.90;1.80;;;;;;;12.56;100.00;-19493.63;5055643;28;20032;-68
2021/12/31 06:54:39;;;;;;;4.47;1.70;;;;;;;12.73;100.00;-19498.09;5061073;28;20121;-67
2021/12/31 06:57:04;;;;;;;6.60;1.77;;;;;;;12.71;100.00;-19497.56;5065104;28;20432;-67
2021/12/31 06:59:30;;;;;;;4.27;1.70;;;;;;;12.67;100.00;-19496.38;5059367;28;20048;-68
2021/12/31 07:01:57;;;;;;;4.90;1.67;;;;;;;12.72;100.00;-19497.81;5057094;28;20036;-68
2021/12/31 07:04:23;;;;;;;5.80;1.70;;;;;;;12.72;100.00;-19497.81;5054805;28;20115;-68
2021/12/31 07:06:48;;;;;;;4.77;1.77;;;;;;;12.78;100.00;-19499.41;5057693;28;20119;-68
2021/12/31 07:09:13;;;;;;;4.63;1.53;;;;;;;13.14;100.00;-19508.59;5060314;28;20043;-68
2021/12/31 07:11:39;;;;;;;3.23;1.40;;;;;;;13.12;100.00;-19508.06;5064915;28;20064;-68
2021/12/31 07:14:04;;;;;;;6.50;1.87;;;;;;;13.02;100.00;-19505.56;5058299;28;20024;-68
2021/12/31 07:16:30;;;;;;;4.00;1.63;;;;;;;12.95;100.00;-19503.72;5063872;28;20138;-69
2021/12/31 07:18:55;;;;;;;4.47;1.90;;;;;;;13.04;100.00;-19505.97;5061628;28;20220;-68
2021/12/31 07:21:21;;;;;;;5.57;1.87;;;;;;;13.04;100.00;-19506.09;5062850;28;20024;-68
2021/12/31 07:23:46;;;;;;;5.97;1.83;;;;;;;13.02;100.00;-19505.44;5065415;28;20184;-68
2021/12/31 07:26:11;;;;;;;4.60;1.80;;;;;;;12.98;100.00;-19504.38;5061763;28;20027;-68
2021/12/31 07:28:37;;;;;;;4.47;1.63;;;;;;;13.02;100.00;-19505.44;5066858;28;20377;-68
2021/12/31 07:31:02;;;;;;;6.00;1.80;;;;;;;12.94;100.00;-19503.34;5062579;28;20024;-68
2021/12/31 07:33:28;;;;;;;5.23;1.83;;;;;;;12.99;100.00;-19504.66;5062539;28;20016;-68
2021/12/31 07:35:54;;;;;;;5.80;1.83;;;;;;;13.09;100.00;-19507.41;5058522;28;20032;-68
2021/12/31 07:38:28;;;;;;;4.43;1.70;;;;;;;13.23;100.00;-19510.94;5064621;28;20487;-68
2021/12/31 07:40:54;;;;;;;3.50;1.57;;;;;;;13.07;100.00;-19506.75;5061114;28;20279;-68
2021/12/31 07:43:21;;;;;;;3.97;1.60;;;;;;;13.14;100.00;-19508.59;5059892;28;20017;-68
2021/12/31 07:45:47;;;;;;;4.63;1.40;;;;;;;13.10;100.00;-19507.66;5062278;28;20793;-68
2021/12/31 07:48:12;;;;;;;6.77;1.73;;;;;;;13.09;100.00;-19507.28;5061975;28;20103;-68
2021/12/31 07:50:38;;;;;;;6.40;1.90;;;;;;;13.01;100.00;-19505.19;5059826;28;20035;-68
2021/12/31 07:53:05;;;;;;;4.67;1.67;;;;;;;13.06;100.00;-19506.63;5056274;28;20380;-68
2021/12/31 07:55:32;;;;;;;6.97;2.17;;;;;;;13.01;100.00;-19505.31;5063783;28;20115;-68
2021/12/31 07:57:57;;;;;;;2.80;1.30;;;;;;;13.08;100.00;-19507.00;5064818;28;20020;-68
2021/12/31 08:00:23;;;;;;;6.93;1.87;;;;;;;13.03;100.00;-19505.69;5059564;28;20020;-68
2021/12/31 08:02:49;;;;;;;4.77;1.60;;;;;;;13.16;100.00;-19509.09;5057746;28;20040;-68
2021/12/31 08:05:14;;;;;;;8.33;2.70;;;;;;;13.04;100.00;-19505.97;5054645;28;20056;-68
2021/12/31 08:07:39;;;;;;;4.80;1.67;;;;;;;13.04;100.00;-19506.09;5057690;28;20457;-68
2021/12/31 08:10:05;;;;;;;4.67;1.60;;;;;;;12.99;100.00;-19504.66;5063094;28;20137;-68
2021/12/31 08:12:33;;;;;;;4.90;1.70;;;;;;;13.01;100.00;-19505.19;5061919;28;20044;-68
2021/12/31 08:14:58;;;;;;;3.20;1.30;;;;;;;13.17;100.00;-19509.38;5060778;28;20090;-68
2021/12/31 08:17:24;;;;;;;2.27;1.20;;;;;;;13.09;100.00;-19507.28;5059346;28;20032;-71
2021/12/31 08:19:49;;;;;;;3.70;1.77;;;;;;;13.12;100.00;-19508.19;5066822;28;20166;-68
2021/12/31 08:22:14;;;;;;;3.77;1.43;;;;;;;13.16;100.00;-19509.09;5061302;28;20097;-68
2021/12/31 08:24:40;;;;;;;3.97;1.80;;;;;;;13.04;100.00;-19505.97;5060090;28;20595;-68
2021/12/31 08:27:05;;;;;;;4.53;1.73;;;;;;;13.16;100.00;-19509.09;5062037;28;20020;-68
2021/12/31 08:29:30;;;;;;;4.60;1.53;;;;;;;13.14;100.00;-19508.59;5060673;28;20038;-68
2021/12/31 08:31:56;;;;;;;4.30;1.80;;;;;;;13.16;100.00;-19509.25;5053649;28;20467;-68
2021/12/31 08:34:21;;;;;;;4.33;1.87;;;;;;;13.19;100.00;-19510.03;5054832;28;20282;-68
2021/12/31 08:36:47;;;;;;;4.87;2.40;;;;;;;13.16;100.00;-19509.25;5057557;28;20059;-68
2021/12/31 08:39:12;;;;;;;3.50;1.60;;;;;;;13.11;100.00;-19507.81;5057476;28;20020;-68
2021/12/31 08:41:39;;;;;;;3.30;1.73;;;;;;;13.21;100.00;-19510.44;5055524;28;20028;-68
2021/12/31 08:44:06;;;;;;;7.00;1.83;;;;;;;13.17;100.00;-19509.38;5059434;28;20048;-68
2021/12/31 08:46:32;;;;;;;4.50;2.00;;;;;;;13.19;100.00;-19509.91;5060630;28;20016;-68
2021/12/31 08:48:58;;;;;;;2.57;1.20;;;;;;;13.16;100.00;-19509.09;5062778;28;20058;-68
2021/12/31 08:51:25;;;;;;;4.03;1.70;;;;;;;13.13;100.00;-19508.31;5060219;28;20020;-68
2021/12/31 08:53:51;;;;;;;5.00;2.13;;;;;;;13.15;100.00;-19508.84;5060929;28;20510;-68
2021/12/31 08:56:16;;;;;;;4.87;2.00;;;;;;;13.17;100.00;-19509.50;5061467;28;20016;-68
2021/12/31 08:58:42;;;;;;;4.00;1.90;;;;;;;13.37;100.00;-19514.63;5065576;28;20476;-68
2021/12/31 09:01:07;;;;;;;3.33;1.77;;;;;;;13.39;100.00;-19515.16;5058255;28;20111;-68
2021/12/31 09:03:33;;;;;;;3.80;1.60;;;;;;;13.19;100.00;-19510.03;5058113;28;20032;-68
2021/12/31 09:05:58;;;;;;;4.00;1.90;;;;;;;13.10;100.00;-19507.66;5056783;28;20043;-68
2021/12/31 09:08:23;;;;;;;5.00;1.90;;;;;;;13.14;100.00;-19508.59;5057567;28;20036;-68
2021/12/31 09:10:49;;;;;;;4.87;1.90;;;;;;;13.22;100.00;-19510.56;5060562;28;20441;-68
2021/12/31 09:13:15;;;;;;;4.90;2.10;;;;;;;13.29;100.00;-19512.53;5057170;28;20447;-68
2021/12/31 09:15:40;;;;;;;7.30;1.87;;;;;;;13.33;100.00;-19513.56;5068366;28;20385;-68
2021/12/31 09:18:05;;;;;;;4.87;1.97;;;;;;;13.31;100.00;-19513.06;5058609;28;20020;-68
2021/12/31 09:20:31;;;;;;;4.57;1.90;;;;;;;13.34;100.00;-19513.84;5060442;28;20055;-68
2021/12/31 09:22:56;;;;;;;4.10;1.83;;;;;;;13.48;100.00;-19517.50;5059144;28;20040;-68
2021/12/31 09:25:23;;;;;;;4.27;1.83;;;;;;;13.61;100.00;-19520.66;5057966;28;20099;-68
2021/12/31 09:27:48;;;;;;;3.87;1.80;;;;;;;13.63;100.00;-19521.19;5064257;28;20028;-68
2021/12/31 09:30:14;;;;;;;5.93;1.53;;;;;;;13.64;100.00;-19521.56;5061539;28;20028;-68
2021/12/31 09:32:40;;;;;;;4.03;1.90;;;;;;;13.74;100.00;-19524.06;5060529;28;20028;-68
2021/12/31 09:35:06;;;;;;;3.80;1.83;;;;;;;13.77;100.00;-19524.97;5060045;28;20028;-68
2021/12/31 09:37:32;;;;;;;4.07;1.83;;;;;;;13.69;100.00;-19522.75;5059372;28;20079;-68
2021/12/31 09:39:58;;;;;;;3.43;1.70;;;;;;;13.62;100.00;-19520.91;5052721;28;20052;-68
2021/12/31 09:42:24;;;;;;;3.33;1.60;;;;;;;13.56;100.00;-19519.34;5068181;28;20036;-68
2021/12/31 09:44:49;;;;;;;4.60;1.70;;;;;;;13.51;100.00;-19518.03;5058932;28;20033;-68
2021/12/31 09:47:16;;;;;;;4.23;1.60;;;;;;;13.47;100.00;-19517.25;5050438;28;20313;-68
2021/12/31 09:49:43;;;;;;;7.07;2.07;;;;;;;13.41;100.00;-19515.69;5047393;28;20039;-68
2021/12/31 09:52:11;;;;;;;5.43;1.50;;;;;;;13.38;100.00;-19514.88;5048246;28;20629;-68
2021/12/31 09:54:48;;;;;;;4.50;1.93;;;;;;;13.33;100.00;-19513.56;5047379;28;20542;-68
2021/12/31 09:57:18;;;;;;;4.97;1.93;;;;;;;13.37;100.00;-19514.63;5065194;28;20311;-68
2021/12/31 09:59:44;;;;;;;2.93;1.43;;;;;;;13.34;100.00;-19513.84;5056692;28;20328;-68
2021/12/31 10:02:10;;;;;;;4.97;1.73;;;;;;;13.29;100.00;-19512.41;5056227;28;20059;-68
2021/12/31 10:04:59;;;;;;;4.83;1.73;;;;;;;13.26;100.00;-19511.59;5054002;28;20037;-68
2021/12/31 10:07:28;;;;;;;5.93;2.00;;;;;;;13.22;100.00;-19510.56;4982288;28;20037;-68
2021/12/31 10:10:06;;;;;;;3.30;1.67;;;;;;;13.28;100.00;-19512.25;4982050;28;20155;-68
2021/12/31 10:12:46;;;;;;;6.73;2.47;;;;;;;13.29;100.00;-19512.53;4975657;28;20151;-68
2021/12/31 10:15:11;;;;;;;5.37;1.60;;;;;;;13.30;100.00;-19512.66;4975410;28;20053;-68
2021/12/31 10:17:37;;;;;;;3.53;1.83;;;;;;;13.23;100.00;-19510.81;4978096;28;20034;-68
2021/12/31 10:20:03;;;;;;;4.27;1.93;;;;;;;13.27;100.00;-19512.00;4982548;28;20030;-68
2021/12/31 10:22:28;;;;;;;3.97;1.47;;;;;;;13.30;100.00;-19512.78;4969979;28;20030;-68
2021/12/31 10:24:54;;;;;;;5.60;2.27;;;;;;;13.29;100.00;-19512.53;4971037;28;20257;-68
2021/12/31 10:27:20;;;;;;;4.63;2.00;;;;;;;13.31;100.00;-19513.06;4964235;28;20117;-68
2021/12/31 10:29:54;;;;;;;9.70;2.27;;;;;;;13.43;100.00;-19516.06;4968601;28;20031;-68
2021/12/31 10:32:22;;;;;;;4.60;2.00;;;;;;;13.40;100.00;-19515.41;4971091;28;20475;-68
2021/12/31 10:34:48;;;;;;;3.23;1.40;;;;;;;13.40;100.00;-19515.28;4964919;28;20507;-68
2021/12/31 10:37:19;;;;;;;3.40;1.40;;;;;;;13.40;100.00;-19515.41;4962909;28;20128;-68
2021/12/31 10:39:53;;;;;;;4.13;1.70;;;;;;;13.45;100.00;-19516.59;4970788;28;20085;-68
2021/12/31 10:42:19;;;;;;;4.60;1.47;;;;;;;13.40;100.00;-19515.41;4969699;28;20022;-68
2021/12/31 10:44:47;;;;;;;4.07;1.83;;;;;;;13.40;100.00;-19515.41;5017515;28;20041;-68
2021/12/31 10:47:16;;;;;;;5.53;1.50;;;;;;;13.51;100.00;-19518.03;5052305;28;20039;-68
2021/12/31 10:49:59;;;;;;;4.70;1.67;;;;;;;13.56;100.00;-19519.34;5058163;28;20036;-68
2021/12/31 10:52:29;;;;;;;3.97;1.70;;;;;;;13.60;100.00;-19520.53;5054002;28;20028;-68
2021/12/31 10:55:24;;;;;;;2.73;1.33;;;;;;;13.46;100.00;-19517.00;5058321;28;20085;-68
2021/12/31 10:57:57;;;;;;;3.53;1.67;;;;;;;13.33;100.00;-19513.56;5057766;28;20040;-68
2021/12/31 11:00:24;;;;;;;3.93;1.60;;;;;;;13.23;100.00;-19510.81;5048691;28;20029;-68
2021/12/31 11:02:50;;;;;;;4.50;1.77;;;;;;;13.14;100.00;-19508.59;5048426;28;20109;-68
2021/12/31 11:05:18;;;;;;;5.23;1.73;;;;;;;13.12;100.00;-19508.06;5053366;28;20465;-68
2021/12/31 11:07:45;;;;;;;4.17;1.90;;;;;;;13.08;100.00;-19507.00;5048793;28;20052;-68
2021/12/31 11:10:11;;;;;;;3.60;1.63;;;;;;;13.06;100.00;-19506.63;5048257;28;20029;-68
2021/12/31 11:12:37;;;;;;;4.30;1.30;;;;;;;13.10;100.00;-19507.53;5050249;28;20023;-68
2021/12/31 11:15:04;;;;;;;3.27;1.50;;;;;;;13.08;100.00;-19507.16;5047817;28;20354;-68
2021/12/31 11:17:30;;;;;;;4.53;1.50;;;;;;;13.02;100.00;-19505.56;5052829;28;20113;-68
2021/12/31 11:19:57;;;;;;;4.63;1.60;;;;;;;12.94;100.00;-19503.34;5049464;28;20303;-68
2021/12/31 11:22:27;;;;;;;4.53;1.70;;;;;;;12.96;100.00;-19503.88;5050738;28;20302;-68